sensor_id;sensor_type;location;lat;lon;timestamp;P1;durP1;ratioP1;P2;durP2;ratioP2
37805;SDS011;25082;50.870;0.022;2022-11-20T00:01:08;11.65;;;6.40;;
37805;SDS011;25082;50.870;0.022;2022-11-20T00:03:38;9.40;;;5.68;;
37805;SDS011;25082;50.870;0.022;2022-11-20T00:06:05;9.05;;;5.57;;
37805;SDS011;25082;50.870;0.022;2022-11-20T00:08:33;10.65;;;6.78;;
37805;SDS011;25082;50.870;0.022;2022-11-20T00:11:05;12.25;;;6.63;;
37805;SDS011;25082;50.870;0.022;2022-11-20T00:13:33;11.15;;;6.72;;
37805;SDS011;25082;50.870;0.022;2022-11-20T00:15:59;10.15;;;6.32;;
37805;SDS011;25082;50.870;0.022;2022-11-20T00:18:27;11.38;;;6.95;;
37805;SDS011;25082;50.870;0.022;2022-11-20T00:20:53;10.45;;;6.70;;
37805;SDS011;25082;50.870;0.022;2022-11-20T00:23:25;12.85;;;7.35;;
37805;SDS011;25082;50.870;0.022;2022-11-20T00:25:50;13.30;;;7.53;;
37805;SDS011;25082;50.870;0.022;2022-11-20T00:28:16;11.57;;;7.10;;
37805;SDS011;25082;50.870;0.022;2022-11-20T00:30:42;11.02;;;7.28;;
37805;SDS011;25082;50.870;0.022;2022-11-20T00:33:07;13.23;;;7.22;;
37805;SDS011;25082;50.870;0.022;2022-11-20T00:35:33;12.73;;;7.20;;
37805;SDS011;25082;50.870;0.022;2022-11-20T00:37:59;11.20;;;7.57;;
37805;SDS011;25082;50.870;0.022;2022-11-20T00:40:24;12.02;;;7.45;;
37805;SDS011;25082;50.870;0.022;2022-11-20T00:42:50;10.80;;;6.47;;
37805;SDS011;25082;50.870;0.022;2022-11-20T00:45:16;11.27;;;6.68;;
37805;SDS011;25082;50.870;0.022;2022-11-20T00:47:41;11.48;;;6.82;;
37805;SDS011;25082;50.870;0.022;2022-11-20T00:50:07;11.90;;;6.65;;
37805;SDS011;25082;50.870;0.022;2022-11-20T00:52:33;12.60;;;7.03;;
37805;SDS011;25082;50.870;0.022;2022-11-20T00:54:59;11.52;;;7.40;;
37805;SDS011;25082;50.870;0.022;2022-11-20T00:57:25;10.02;;;6.45;;
37805;SDS011;25082;50.870;0.022;2022-11-20T00:59:50;10.98;;;6.97;;
37805;SDS011;25082;50.870;0.022;2022-11-20T01:02:16;15.02;;;6.57;;
37805;SDS011;25082;50.870;0.022;2022-11-20T01:04:42;10.88;;;6.47;;
37805;SDS011;25082;50.870;0.022;2022-11-20T01:07:07;11.57;;;6.80;;
37805;SDS011;25082;50.870;0.022;2022-11-20T01:09:33;10.63;;;6.65;;
37805;SDS011;25082;50.870;0.022;2022-11-20T01:11:59;8.40;;;5.93;;
37805;SDS011;25082;50.870;0.022;2022-11-20T01:14:25;12.23;;;6.88;;
37805;SDS011;25082;50.870;0.022;2022-11-20T01:16:51;9.15;;;6.20;;
37805;SDS011;25082;50.870;0.022;2022-11-20T01:19:18;11.60;;;6.68;;
37805;SDS011;25082;50.870;0.022;2022-11-20T01:21:47;10.90;;;6.40;;
37805;SDS011;25082;50.870;0.022;2022-11-20T01:24:15;11.43;;;6.82;;
37805;SDS011;25082;50.870;0.022;2022-11-20T01:26:42;10.98;;;7.00;;
37805;SDS011;25082;50.870;0.022;2022-11-20T01:29:12;10.77;;;6.78;;
37805;SDS011;25082;50.870;0.022;2022-11-20T01:31:44;8.80;;;5.68;;
37805;SDS011;25082;50.870;0.022;2022-11-20T01:34:11;10.20;;;6.47;;
37805;SDS011;25082;50.870;0.022;2022-11-20T01:36:39;11.63;;;6.57;;
37805;SDS011;25082;50.870;0.022;2022-11-20T01:39:15;10.85;;;7.05;;
37805;SDS011;25082;50.870;0.022;2022-11-20T01:41:43;10.50;;;7.13;;
37805;SDS011;25082;50.870;0.022;2022-11-20T01:47:58;9.68;;;6.60;;
37805;SDS011;25082;50.870;0.022;2022-11-20T01:53:05;12.80;;;7.75;;
37805;SDS011;25082;50.870;0.022;2022-11-20T01:55:36;10.15;;;7.32;;
37805;SDS011;25082;50.870;0.022;2022-11-20T01:58:08;10.15;;;6.82;;
37805;SDS011;25082;50.870;0.022;2022-11-20T02:00:34;10.50;;;7.32;;
37805;SDS011;25082;50.870;0.022;2022-11-20T02:03:01;13.23;;;8.23;;
37805;SDS011;25082;50.870;0.022;2022-11-20T02:06:32;11.30;;;7.82;;
37805;SDS011;25082;50.870;0.022;2022-11-20T02:08:33;11.38;;;7.93;;
37805;SDS011;25082;50.870;0.022;2022-11-20T02:11:00;12.60;;;8.45;;
37805;SDS011;25082;50.870;0.022;2022-11-20T02:13:26;12.20;;;7.72;;
37805;SDS011;25082;50.870;0.022;2022-11-20T02:16:31;11.50;;;7.47;;
37805;SDS011;25082;50.870;0.022;2022-11-20T02:19:00;12.32;;;7.88;;
37805;SDS011;25082;50.870;0.022;2022-11-20T02:24:19;13.68;;;8.55;;
37805;SDS011;25082;50.870;0.022;2022-11-20T02:26:50;11.43;;;7.70;;
37805;SDS011;25082;50.870;0.022;2022-11-20T02:29:32;12.38;;;8.73;;
37805;SDS011;25082;50.870;0.022;2022-11-20T02:32:02;11.00;;;7.95;;
37805;SDS011;25082;50.870;0.022;2022-11-20T02:34:28;12.57;;;8.50;;
37805;SDS011;25082;50.870;0.022;2022-11-20T02:36:55;12.38;;;7.97;;
37805;SDS011;25082;50.870;0.022;2022-11-20T02:39:22;13.45;;;8.85;;
37805;SDS011;25082;50.870;0.022;2022-11-20T02:41:53;12.27;;;8.02;;
37805;SDS011;25082;50.870;0.022;2022-11-20T02:44:20;15.02;;;8.27;;
37805;SDS011;25082;50.870;0.022;2022-11-20T02:46:46;10.88;;;7.78;;
37805;SDS011;25082;50.870;0.022;2022-11-20T02:49:12;12.73;;;8.15;;
37805;SDS011;25082;50.870;0.022;2022-11-20T02:51:37;12.32;;;8.20;;
37805;SDS011;25082;50.870;0.022;2022-11-20T02:54:04;10.40;;;7.93;;
37805;SDS011;25082;50.870;0.022;2022-11-20T02:56:30;12.38;;;7.97;;
37805;SDS011;25082;50.870;0.022;2022-11-20T02:58:56;12.23;;;8.93;;
37805;SDS011;25082;50.870;0.022;2022-11-20T03:01:21;9.85;;;7.43;;
37805;SDS011;25082;50.870;0.022;2022-11-20T03:03:47;10.82;;;7.57;;
37805;SDS011;25082;50.870;0.022;2022-11-20T03:06:14;13.20;;;9.00;;
37805;SDS011;25082;50.870;0.022;2022-11-20T03:08:41;12.20;;;7.90;;
37805;SDS011;25082;50.870;0.022;2022-11-20T03:11:07;12.90;;;7.75;;
37805;SDS011;25082;50.870;0.022;2022-11-20T03:13:34;11.43;;;7.32;;
37805;SDS011;25082;50.870;0.022;2022-11-20T03:16:13;11.77;;;8.10;;
37805;SDS011;25082;50.870;0.022;2022-11-20T03:18:41;11.18;;;7.55;;
37805;SDS011;25082;50.870;0.022;2022-11-20T03:21:07;11.95;;;7.50;;
37805;SDS011;25082;50.870;0.022;2022-11-20T03:23:34;10.75;;;7.95;;
37805;SDS011;25082;50.870;0.022;2022-11-20T03:26:07;10.48;;;7.55;;
37805;SDS011;25082;50.870;0.022;2022-11-20T03:28:33;9.90;;;7.00;;
37805;SDS011;25082;50.870;0.022;2022-11-20T03:31:04;11.13;;;8.00;;
37805;SDS011;25082;50.870;0.022;2022-11-20T03:33:37;13.75;;;8.70;;
37805;SDS011;25082;50.870;0.022;2022-11-20T03:36:05;14.70;;;8.07;;
37805;SDS011;25082;50.870;0.022;2022-11-20T03:38:33;11.05;;;7.85;;
37805;SDS011;25082;50.870;0.022;2022-11-20T03:41:00;10.23;;;7.43;;
37805;SDS011;25082;50.870;0.022;2022-11-20T03:43:27;9.63;;;7.20;;
37805;SDS011;25082;50.870;0.022;2022-11-20T03:45:53;11.85;;;7.25;;
37805;SDS011;25082;50.870;0.022;2022-11-20T03:48:18;11.52;;;7.78;;
37805;SDS011;25082;50.870;0.022;2022-11-20T03:50:44;11.32;;;7.90;;
37805;SDS011;25082;50.870;0.022;2022-11-20T03:53:12;11.30;;;8.18;;
37805;SDS011;25082;50.870;0.022;2022-11-20T03:55:38;9.15;;;6.13;;
37805;SDS011;25082;50.870;0.022;2022-11-20T03:58:04;10.93;;;7.40;;
37805;SDS011;25082;50.870;0.022;2022-11-20T04:00:30;10.73;;;7.13;;
37805;SDS011;25082;50.870;0.022;2022-11-20T04:02:59;9.43;;;6.75;;
37805;SDS011;25082;50.870;0.022;2022-11-20T04:05:25;12.32;;;7.70;;
37805;SDS011;25082;50.870;0.022;2022-11-20T04:07:51;10.13;;;6.70;;
37805;SDS011;25082;50.870;0.022;2022-11-20T04:10:17;10.13;;;6.57;;
37805;SDS011;25082;50.870;0.022;2022-11-20T04:12:43;10.52;;;6.60;;
37805;SDS011;25082;50.870;0.022;2022-11-20T04:15:09;10.35;;;7.38;;
37805;SDS011;25082;50.870;0.022;2022-11-20T04:17:35;9.50;;;6.45;;
37805;SDS011;25082;50.870;0.022;2022-11-20T04:20:01;9.40;;;6.47;;
37805;SDS011;25082;50.870;0.022;2022-11-20T04:22:27;9.02;;;5.85;;
37805;SDS011;25082;50.870;0.022;2022-11-20T04:24:53;7.63;;;5.57;;
37805;SDS011;25082;50.870;0.022;2022-11-20T04:27:19;8.82;;;5.82;;
37805;SDS011;25082;50.870;0.022;2022-11-20T04:29:44;9.13;;;5.88;;
37805;SDS011;25082;50.870;0.022;2022-11-20T04:32:10;9.13;;;5.40;;
37805;SDS011;25082;50.870;0.022;2022-11-20T04:34:36;7.10;;;4.70;;
37805;SDS011;25082;50.870;0.022;2022-11-20T04:37:01;7.80;;;4.65;;
37805;SDS011;25082;50.870;0.022;2022-11-20T04:39:27;7.00;;;4.70;;
37805;SDS011;25082;50.870;0.022;2022-11-20T04:41:53;8.50;;;4.85;;
37805;SDS011;25082;50.870;0.022;2022-11-20T04:44:38;6.57;;;4.28;;
37805;SDS011;25082;50.870;0.022;2022-11-20T04:47:04;7.47;;;4.65;;
37805;SDS011;25082;50.870;0.022;2022-11-20T04:49:30;5.10;;;3.97;;
37805;SDS011;25082;50.870;0.022;2022-11-20T04:51:56;5.32;;;3.63;;
37805;SDS011;25082;50.870;0.022;2022-11-20T04:54:22;7.78;;;4.03;;
37805;SDS011;25082;50.870;0.022;2022-11-20T04:56:48;5.38;;;3.42;;
37805;SDS011;25082;50.870;0.022;2022-11-20T04:59:14;6.47;;;3.58;;
37805;SDS011;25082;50.870;0.022;2022-11-20T05:01:40;6.07;;;4.00;;
37805;SDS011;25082;50.870;0.022;2022-11-20T05:04:06;6.97;;;3.63;;
37805;SDS011;25082;50.870;0.022;2022-11-20T05:06:32;6.78;;;3.47;;
37805;SDS011;25082;50.870;0.022;2022-11-20T05:08:58;5.50;;;3.17;;
37805;SDS011;25082;50.870;0.022;2022-11-20T05:11:23;4.95;;;3.20;;
37805;SDS011;25082;50.870;0.022;2022-11-20T05:13:50;5.20;;;2.83;;
37805;SDS011;25082;50.870;0.022;2022-11-20T05:16:18;7.05;;;3.58;;
37805;SDS011;25082;50.870;0.022;2022-11-20T05:18:45;4.55;;;3.00;;
37805;SDS011;25082;50.870;0.022;2022-11-20T05:21:11;6.13;;;3.30;;
37805;SDS011;25082;50.870;0.022;2022-11-20T05:23:37;6.82;;;2.97;;
37805;SDS011;25082;50.870;0.022;2022-11-20T05:26:04;3.50;;;2.45;;
37805;SDS011;25082;50.870;0.022;2022-11-20T05:28:31;3.85;;;2.30;;
37805;SDS011;25082;50.870;0.022;2022-11-20T05:31:30;5.55;;;2.85;;
37805;SDS011;25082;50.870;0.022;2022-11-20T05:36:16;3.08;;;2.20;;
37805;SDS011;25082;50.870;0.022;2022-11-20T05:38:42;5.85;;;2.60;;
37805;SDS011;25082;50.870;0.022;2022-11-20T05:43:42;4.45;;;2.55;;
37805;SDS011;25082;50.870;0.022;2022-11-20T05:46:10;4.35;;;2.15;;
37805;SDS011;25082;50.870;0.022;2022-11-20T05:48:37;3.80;;;2.00;;
37805;SDS011;25082;50.870;0.022;2022-11-20T05:51:04;3.88;;;2.15;;
37805;SDS011;25082;50.870;0.022;2022-11-20T05:53:32;4.15;;;1.73;;
37805;SDS011;25082;50.870;0.022;2022-11-20T05:56:06;4.88;;;2.33;;
37805;SDS011;25082;50.870;0.022;2022-11-20T05:58:35;3.88;;;2.17;;
37805;SDS011;25082;50.870;0.022;2022-11-20T06:01:05;4.05;;;1.90;;
37805;SDS011;25082;50.870;0.022;2022-11-20T06:03:36;4.05;;;2.25;;
37805;SDS011;25082;50.870;0.022;2022-11-20T06:06:03;2.83;;;1.50;;
37805;SDS011;25082;50.870;0.022;2022-11-20T06:08:29;4.28;;;2.15;;
37805;SDS011;25082;50.870;0.022;2022-11-20T06:10:55;4.95;;;2.10;;
37805;SDS011;25082;50.870;0.022;2022-11-20T06:13:21;5.05;;;1.95;;
37805;SDS011;25082;50.870;0.022;2022-11-20T06:15:51;3.45;;;1.58;;
37805;SDS011;25082;50.870;0.022;2022-11-20T06:18:20;2.72;;;1.42;;
37805;SDS011;25082;50.870;0.022;2022-11-20T06:20:46;3.50;;;1.48;;
37805;SDS011;25082;50.870;0.022;2022-11-20T06:23:12;3.90;;;1.55;;
37805;SDS011;25082;50.870;0.022;2022-11-20T06:25:39;4.20;;;1.70;;
37805;SDS011;25082;50.870;0.022;2022-11-20T06:28:06;2.45;;;1.52;;
37805;SDS011;25082;50.870;0.022;2022-11-20T06:30:32;3.08;;;1.27;;
37805;SDS011;25082;50.870;0.022;2022-11-20T06:32:58;2.60;;;1.42;;
37805;SDS011;25082;50.870;0.022;2022-11-20T06:35:23;3.17;;;1.35;;
37805;SDS011;25082;50.870;0.022;2022-11-20T06:37:49;2.80;;;1.30;;
37805;SDS011;25082;50.870;0.022;2022-11-20T06:40:15;3.83;;;1.65;;
37805;SDS011;25082;50.870;0.022;2022-11-20T06:42:41;2.75;;;1.08;;
37805;SDS011;25082;50.870;0.022;2022-11-20T06:45:07;1.58;;;1.08;;
37805;SDS011;25082;50.870;0.022;2022-11-20T06:47:33;1.80;;;1.13;;
37805;SDS011;25082;50.870;0.022;2022-11-20T06:49:59;3.13;;;1.17;;
37805;SDS011;25082;50.870;0.022;2022-11-20T06:52:25;5.07;;;1.77;;
37805;SDS011;25082;50.870;0.022;2022-11-20T06:54:50;2.30;;;1.17;;
37805;SDS011;25082;50.870;0.022;2022-11-20T06:57:16;2.53;;;1.13;;
37805;SDS011;25082;50.870;0.022;2022-11-20T06:59:42;2.80;;;1.08;;
37805;SDS011;25082;50.870;0.022;2022-11-20T07:02:11;3.97;;;1.02;;
37805;SDS011;25082;50.870;0.022;2022-11-20T07:04:37;1.88;;;1.02;;
37805;SDS011;25082;50.870;0.022;2022-11-20T07:07:03;2.90;;;1.10;;
37805;SDS011;25082;50.870;0.022;2022-11-20T07:09:29;1.98;;;1.00;;
37805;SDS011;25082;50.870;0.022;2022-11-20T07:11:54;2.63;;;0.88;;
37805;SDS011;25082;50.870;0.022;2022-11-20T07:14:20;3.03;;;1.00;;
37805;SDS011;25082;50.870;0.022;2022-11-20T07:16:46;2.65;;;0.98;;
37805;SDS011;25082;50.870;0.022;2022-11-20T07:19:11;3.38;;;1.00;;
37805;SDS011;25082;50.870;0.022;2022-11-20T07:21:37;2.28;;;0.82;;
37805;SDS011;25082;50.870;0.022;2022-11-20T07:24:03;2.15;;;0.85;;
37805;SDS011;25082;50.870;0.022;2022-11-20T07:26:28;3.75;;;1.00;;
37805;SDS011;25082;50.870;0.022;2022-11-20T07:28:54;1.20;;;0.57;;
37805;SDS011;25082;50.870;0.022;2022-11-20T07:31:20;5.45;;;0.95;;
37805;SDS011;25082;50.870;0.022;2022-11-20T07:33:46;1.77;;;1.10;;
37805;SDS011;25082;50.870;0.022;2022-11-20T07:36:12;0.88;;;0.65;;
37805;SDS011;25082;50.870;0.022;2022-11-20T07:38:37;1.50;;;0.82;;
37805;SDS011;25082;50.870;0.022;2022-11-20T07:41:03;1.65;;;0.88;;
37805;SDS011;25082;50.870;0.022;2022-11-20T07:43:29;4.10;;;0.98;;
37805;SDS011;25082;50.870;0.022;2022-11-20T07:45:55;3.30;;;1.05;;
37805;SDS011;25082;50.870;0.022;2022-11-20T07:48:22;1.20;;;0.60;;
37805;SDS011;25082;50.870;0.022;2022-11-20T07:50:48;1.65;;;0.70;;
37805;SDS011;25082;50.870;0.022;2022-11-20T07:53:14;1.73;;;0.70;;
37805;SDS011;25082;50.870;0.022;2022-11-20T07:55:45;1.13;;;0.93;;
37805;SDS011;25082;50.870;0.022;2022-11-20T07:58:11;3.50;;;0.82;;
37805;SDS011;25082;50.870;0.022;2022-11-20T08:00:37;2.40;;;1.13;;
37805;SDS011;25082;50.870;0.022;2022-11-20T08:03:03;1.10;;;0.70;;
37805;SDS011;25082;50.870;0.022;2022-11-20T08:05:29;1.50;;;0.93;;
37805;SDS011;25082;50.870;0.022;2022-11-20T08:07:55;2.88;;;0.80;;
37805;SDS011;25082;50.870;0.022;2022-11-20T08:10:21;2.22;;;0.75;;
37805;SDS011;25082;50.870;0.022;2022-11-20T08:12:47;1.52;;;0.60;;
37805;SDS011;25082;50.870;0.022;2022-11-20T08:15:33;1.25;;;0.40;;
37805;SDS011;25082;50.870;0.022;2022-11-20T08:18:00;3.70;;;0.90;;
37805;SDS011;25082;50.870;0.022;2022-11-20T08:20:27;1.27;;;0.60;;
37805;SDS011;25082;50.870;0.022;2022-11-20T08:22:56;0.98;;;0.50;;
37805;SDS011;25082;50.870;0.022;2022-11-20T08:25:23;1.58;;;0.73;;
37805;SDS011;25082;50.870;0.022;2022-11-20T08:27:49;2.38;;;0.75;;
37805;SDS011;25082;50.870;0.022;2022-11-20T08:30:15;2.03;;;0.60;;
37805;SDS011;25082;50.870;0.022;2022-11-20T08:32:40;2.60;;;0.80;;
37805;SDS011;25082;50.870;0.022;2022-11-20T08:35:06;1.77;;;0.70;;
37805;SDS011;25082;50.870;0.022;2022-11-20T08:37:32;1.70;;;0.45;;
37805;SDS011;25082;50.870;0.022;2022-11-20T08:39:58;0.95;;;0.40;;
37805;SDS011;25082;50.870;0.022;2022-11-20T08:42:24;1.52;;;0.68;;
37805;SDS011;25082;50.870;0.022;2022-11-20T08:44:49;3.33;;;1.08;;
37805;SDS011;25082;50.870;0.022;2022-11-20T08:47:15;1.63;;;0.60;;
37805;SDS011;25082;50.870;0.022;2022-11-20T08:49:41;2.92;;;0.70;;
37805;SDS011;25082;50.870;0.022;2022-11-20T08:52:06;1.48;;;0.50;;
37805;SDS011;25082;50.870;0.022;2022-11-20T08:54:32;1.05;;;0.47;;
37805;SDS011;25082;50.870;0.022;2022-11-20T08:56:58;1.10;;;0.40;;
37805;SDS011;25082;50.870;0.022;2022-11-20T08:59:23;1.65;;;0.45;;
37805;SDS011;25082;50.870;0.022;2022-11-20T09:01:49;1.05;;;0.50;;
37805;SDS011;25082;50.870;0.022;2022-11-20T09:04:15;2.20;;;0.47;;
37805;SDS011;25082;50.870;0.022;2022-11-20T09:06:40;1.05;;;0.40;;
37805;SDS011;25082;50.870;0.022;2022-11-20T09:09:06;0.90;;;0.40;;
37805;SDS011;25082;50.870;0.022;2022-11-20T09:11:32;2.78;;;0.45;;
37805;SDS011;25082;50.870;0.022;2022-11-20T09:13:59;1.77;;;0.73;;
37805;SDS011;25082;50.870;0.022;2022-11-20T09:16:27;1.30;;;0.43;;
37805;SDS011;25082;50.870;0.022;2022-11-20T09:18:53;2.03;;;0.43;;
37805;SDS011;25082;50.870;0.022;2022-11-20T09:21:18;0.73;;;0.50;;
37805;SDS011;25082;50.870;0.022;2022-11-20T09:23:44;1.50;;;0.68;;
37805;SDS011;25082;50.870;0.022;2022-11-20T09:26:11;0.57;;;0.50;;
37805;SDS011;25082;50.870;0.022;2022-11-20T09:28:38;1.92;;;0.50;;
37805;SDS011;25082;50.870;0.022;2022-11-20T09:31:08;1.75;;;0.57;;
37805;SDS011;25082;50.870;0.022;2022-11-20T09:33:39;1.80;;;0.60;;
37805;SDS011;25082;50.870;0.022;2022-11-20T09:36:04;1.00;;;0.52;;
37805;SDS011;25082;50.870;0.022;2022-11-20T09:38:30;1.25;;;0.63;;
37805;SDS011;25082;50.870;0.022;2022-11-20T09:41:03;1.10;;;0.43;;
37805;SDS011;25082;50.870;0.022;2022-11-20T09:46:25;0.47;;;0.40;;
37805;SDS011;25082;50.870;0.022;2022-11-20T09:49:17;3.08;;;0.75;;
37805;SDS011;25082;50.870;0.022;2022-11-20T09:54:57;1.48;;;0.60;;
37805;SDS011;25082;50.870;0.022;2022-11-20T09:57:30;1.27;;;0.60;;
37805;SDS011;25082;50.870;0.022;2022-11-20T10:00:02;1.33;;;0.50;;
37805;SDS011;25082;50.870;0.022;2022-11-20T10:02:30;1.88;;;0.90;;
37805;SDS011;25082;50.870;0.022;2022-11-20T10:07:43;0.70;;;0.60;;
37805;SDS011;25082;50.870;0.022;2022-11-20T10:10:33;1.98;;;0.63;;
37805;SDS011;25082;50.870;0.022;2022-11-20T10:13:08;1.85;;;1.00;;
37805;SDS011;25082;50.870;0.022;2022-11-20T10:29:32;1.83;;;1.10;;
37805;SDS011;25082;50.870;0.022;2022-11-20T10:32:03;1.80;;;1.13;;
37805;SDS011;25082;50.870;0.022;2022-11-20T10:34:44;2.40;;;1.10;;
37805;SDS011;25082;50.870;0.022;2022-11-20T10:37:18;2.83;;;0.80;;
37805;SDS011;25082;50.870;0.022;2022-11-20T10:39:56;1.65;;;0.75;;
37805;SDS011;25082;50.870;0.022;2022-11-20T10:42:45;3.40;;;1.50;;
37805;SDS011;25082;50.870;0.022;2022-11-20T10:45:15;3.53;;;1.20;;
37805;SDS011;25082;50.870;0.022;2022-11-20T10:47:54;2.08;;;0.98;;
37805;SDS011;25082;50.870;0.022;2022-11-20T11:02:00;4.70;;;1.00;;
37805;SDS011;25082;50.870;0.022;2022-11-20T11:07:06;5.85;;;1.17;;
37805;SDS011;25082;50.870;0.022;2022-11-20T11:09:47;6.97;;;1.48;;
37805;SDS011;25082;50.870;0.022;2022-11-20T11:12:21;7.65;;;1.52;;
37805;SDS011;25082;50.870;0.022;2022-11-20T11:14:53;7.55;;;1.58;;
37805;SDS011;25082;50.870;0.022;2022-11-20T11:17:21;5.22;;;1.15;;
37805;SDS011;25082;50.870;0.022;2022-11-20T11:20:14;10.73;;;1.60;;
37805;SDS011;25082;50.870;0.022;2022-11-20T11:22:46;7.28;;;1.67;;
37805;SDS011;25082;50.870;0.022;2022-11-20T11:27:51;6.72;;;1.50;;
37805;SDS011;25082;50.870;0.022;2022-11-20T11:30:19;6.95;;;1.60;;
37805;SDS011;25082;50.870;0.022;2022-11-20T11:32:45;6.22;;;1.90;;
37805;SDS011;25082;50.870;0.022;2022-11-20T11:35:24;13.00;;;2.08;;
37805;SDS011;25082;50.870;0.022;2022-11-20T11:37:53;11.00;;;1.70;;
37805;SDS011;25082;50.870;0.022;2022-11-20T11:40:27;6.45;;;2.22;;
37805;SDS011;25082;50.870;0.022;2022-11-20T11:42:59;17.92;;;3.80;;
37805;SDS011;25082;50.870;0.022;2022-11-20T11:45:30;11.05;;;2.80;;
37805;SDS011;25082;50.870;0.022;2022-11-20T11:47:57;16.25;;;4.07;;
37805;SDS011;25082;50.870;0.022;2022-11-20T11:50:26;17.30;;;3.67;;
37805;SDS011;25082;50.870;0.022;2022-11-20T12:03:44;15.27;;;4.10;;
37805;SDS011;25082;50.870;0.022;2022-11-20T12:06:36;13.85;;;3.42;;
37805;SDS011;25082;50.870;0.022;2022-11-20T12:09:08;14.52;;;3.50;;
37805;SDS011;25082;50.870;0.022;2022-11-20T12:14:40;12.15;;;3.05;;
37805;SDS011;25082;50.870;0.022;2022-11-20T12:17:12;12.60;;;3.47;;
37805;SDS011;25082;50.870;0.022;2022-11-20T12:19:39;8.15;;;2.78;;
37805;SDS011;25082;50.870;0.022;2022-11-20T12:25:19;11.32;;;3.38;;
37805;SDS011;25082;50.870;0.022;2022-11-20T12:30:26;9.55;;;2.38;;
37805;SDS011;25082;50.870;0.022;2022-11-20T12:43:30;8.40;;;2.75;;
37805;SDS011;25082;50.870;0.022;2022-11-20T12:46:47;12.07;;;2.90;;
37805;SDS011;25082;50.870;0.022;2022-11-20T13:00:23;43.30;;;11.18;;
37805;SDS011;25082;50.870;0.022;2022-11-20T13:02:58;32.50;;;8.80;;
37805;SDS011;25082;50.870;0.022;2022-11-20T13:05:44;24.10;;;9.52;;
37805;SDS011;25082;50.870;0.022;2022-11-20T13:08:24;33.70;;;8.38;;
37805;SDS011;25082;50.870;0.022;2022-11-20T13:11:00;32.08;;;8.43;;
37805;SDS011;25082;50.870;0.022;2022-11-20T13:19:11;25.08;;;7.63;;
37805;SDS011;25082;50.870;0.022;2022-11-20T13:21:39;23.60;;;7.07;;
37805;SDS011;25082;50.870;0.022;2022-11-20T13:24:19;32.53;;;8.23;;
37805;SDS011;25082;50.870;0.022;2022-11-20T13:26:58;26.05;;;7.65;;
37805;SDS011;25082;50.870;0.022;2022-11-20T13:29:27;24.67;;;7.75;;
37805;SDS011;25082;50.870;0.022;2022-11-20T13:32:01;26.67;;;7.95;;
37805;SDS011;25082;50.870;0.022;2022-11-20T13:34:29;23.98;;;7.03;;
37805;SDS011;25082;50.870;0.022;2022-11-20T13:36:56;19.83;;;6.00;;
37805;SDS011;25082;50.870;0.022;2022-11-20T13:39:29;26.23;;;6.07;;
37805;SDS011;25082;50.870;0.022;2022-11-20T13:42:01;20.13;;;5.47;;
37805;SDS011;25082;50.870;0.022;2022-11-20T13:45:02;19.15;;;5.80;;
37805;SDS011;25082;50.870;0.022;2022-11-20T13:47:50;18.10;;;5.22;;
37805;SDS011;25082;50.870;0.022;2022-11-20T13:50:17;23.80;;;6.18;;
37805;SDS011;25082;50.870;0.022;2022-11-20T13:55:54;12.52;;;4.72;;
37805;SDS011;25082;50.870;0.022;2022-11-20T14:01:28;20.13;;;5.18;;
37805;SDS011;25082;50.870;0.022;2022-11-20T14:03:46;14.60;;;4.78;;
37805;SDS011;25082;50.870;0.022;2022-11-20T14:06:55;16.52;;;4.75;;
37805;SDS011;25082;50.870;0.022;2022-11-20T14:09:13;14.10;;;5.15;;
37805;SDS011;25082;50.870;0.022;2022-11-20T14:11:59;12.02;;;4.38;;
37805;SDS011;25082;50.870;0.022;2022-11-20T14:14:26;16.05;;;4.65;;
37805;SDS011;25082;50.870;0.022;2022-11-20T14:17:06;15.90;;;3.92;;
37805;SDS011;25082;50.870;0.022;2022-11-20T14:19:34;15.40;;;5.32;;
37805;SDS011;25082;50.870;0.022;2022-11-20T14:25:32;15.38;;;5.30;;
37805;SDS011;25082;50.870;0.022;2022-11-20T14:27:43;27.20;;;6.68;;
37805;SDS011;25082;50.870;0.022;2022-11-20T14:30:21;27.00;;;5.70;;
37805;SDS011;25082;50.870;0.022;2022-11-20T14:32:48;16.25;;;4.35;;
37805;SDS011;25082;50.870;0.022;2022-11-20T14:35:26;19.00;;;4.50;;
37805;SDS011;25082;50.870;0.022;2022-11-20T14:37:54;17.90;;;4.90;;
37805;SDS011;25082;50.870;0.022;2022-11-20T14:40:22;20.35;;;5.53;;
37805;SDS011;25082;50.870;0.022;2022-11-20T14:42:54;19.80;;;5.82;;
37805;SDS011;25082;50.870;0.022;2022-11-20T14:45:21;14.52;;;3.72;;
37805;SDS011;25082;50.870;0.022;2022-11-20T14:47:48;18.17;;;4.53;;
37805;SDS011;25082;50.870;0.022;2022-11-20T14:50:18;23.40;;;5.28;;
37805;SDS011;25082;50.870;0.022;2022-11-20T14:52:50;12.95;;;4.55;;
37805;SDS011;25082;50.870;0.022;2022-11-20T14:55:38;20.45;;;4.60;;
37805;SDS011;25082;50.870;0.022;2022-11-20T14:58:05;11.80;;;4.45;;
37805;SDS011;25082;50.870;0.022;2022-11-20T15:00:52;28.55;;;6.97;;
37805;SDS011;25082;50.870;0.022;2022-11-20T15:03:19;75.03;;;10.80;;
37805;SDS011;25082;50.870;0.022;2022-11-20T15:05:47;50.67;;;10.82;;
37805;SDS011;25082;50.870;0.022;2022-11-20T15:08:14;51.92;;;10.23;;
37805;SDS011;25082;50.870;0.022;2022-11-20T15:10:45;44.60;;;8.27;;
37805;SDS011;25082;50.870;0.022;2022-11-20T15:13:13;29.30;;;6.80;;
37805;SDS011;25082;50.870;0.022;2022-11-20T15:18:39;25.45;;;6.20;;
37805;SDS011;25082;50.870;0.022;2022-11-20T15:21:15;21.15;;;5.85;;
37805;SDS011;25082;50.870;0.022;2022-11-20T15:23:43;24.83;;;6.65;;
37805;SDS011;25082;50.870;0.022;2022-11-20T15:26:10;26.92;;;5.88;;
37805;SDS011;25082;50.870;0.022;2022-11-20T15:28:41;26.35;;;6.60;;
37805;SDS011;25082;50.870;0.022;2022-11-20T15:31:12;18.10;;;5.18;;
37805;SDS011;25082;50.870;0.022;2022-11-20T15:33:39;20.98;;;5.70;;
37805;SDS011;25082;50.870;0.022;2022-11-20T15:36:05;91.47;;;12.95;;
37805;SDS011;25082;50.870;0.022;2022-11-20T15:38:30;30.63;;;6.70;;
37805;SDS011;25082;50.870;0.022;2022-11-20T15:40:56;20.38;;;5.82;;
37805;SDS011;25082;50.870;0.022;2022-11-20T15:43:22;28.95;;;5.95;;
37805;SDS011;25082;50.870;0.022;2022-11-20T15:46:23;23.10;;;5.90;;
37805;SDS011;25082;50.870;0.022;2022-11-20T15:48:42;26.77;;;5.45;;
37805;SDS011;25082;50.870;0.022;2022-11-20T15:53:35;16.40;;;5.18;;
37805;SDS011;25082;50.870;0.022;2022-11-20T15:56:05;18.25;;;5.97;;
37805;SDS011;25082;50.870;0.022;2022-11-20T15:58:31;29.95;;;5.65;;
37805;SDS011;25082;50.870;0.022;2022-11-20T16:00:57;27.58;;;6.35;;
37805;SDS011;25082;50.870;0.022;2022-11-20T16:03:23;22.23;;;6.32;;
37805;SDS011;25082;50.870;0.022;2022-11-20T16:05:49;19.75;;;5.63;;
37805;SDS011;25082;50.870;0.022;2022-11-20T16:08:15;18.08;;;4.88;;
37805;SDS011;25082;50.870;0.022;2022-11-20T16:10:40;16.83;;;5.40;;
37805;SDS011;25082;50.870;0.022;2022-11-20T16:13:16;13.25;;;4.53;;
37805;SDS011;25082;50.870;0.022;2022-11-20T16:16:02;19.98;;;4.65;;
37805;SDS011;25082;50.870;0.022;2022-11-20T16:18:32;28.85;;;6.65;;
37805;SDS011;25082;50.870;0.022;2022-11-20T16:20:58;31.30;;;6.88;;
37805;SDS011;25082;50.870;0.022;2022-11-20T16:23:23;41.22;;;7.60;;
37805;SDS011;25082;50.870;0.022;2022-11-20T16:25:50;28.73;;;7.05;;
37805;SDS011;25082;50.870;0.022;2022-11-20T16:28:16;26.00;;;5.63;;
37805;SDS011;25082;50.870;0.022;2022-11-20T16:30:42;21.33;;;5.95;;
37805;SDS011;25082;50.870;0.022;2022-11-20T16:33:12;25.33;;;5.82;;
37805;SDS011;25082;50.870;0.022;2022-11-20T16:35:39;31.35;;;8.82;;
37805;SDS011;25082;50.870;0.022;2022-11-20T16:38:05;30.38;;;10.55;;
37805;SDS011;25082;50.870;0.022;2022-11-20T16:40:31;34.38;;;13.80;;
37805;SDS011;25082;50.870;0.022;2022-11-20T16:42:57;39.65;;;18.65;;
37805;SDS011;25082;50.870;0.022;2022-11-20T16:45:39;34.15;;;17.33;;
37805;SDS011;25082;50.870;0.022;2022-11-20T16:48:06;33.55;;;14.90;;